Strona główna
METAR-TAF:

METAR-TAF

Lotnisko :

Port lotniczy Denpasar

Denpasar, Indonezja

Szerokość geograficzna: 08-44-53S, Długość geograficzna: 115-10-03E, wysokość: 4 m

Aktualna obserwacja pogody

Raport powstał 4 godziny i 39 minut temu, godzina 11:30 UTC
Wiatr 8 kt od wschodnio-południowy wschód
Temperatura 27°C
Wilgotność 89%
Ciśnienie 1009 hPa
Widzialność 10 km lub więcej
Mało chmury na wysokości 1700 ft

METAR: WADD 171130Z 11008KT 9999 FEW017 27/25 Q1009 NOSIG

czas: 23:09 (16:09 UTC)

Prognoza

Raport powstał 5 godziny i 9 minut temu, godzina 11:00 UTC
Prognoza ważna od 17 godzina 12 UTC do 18 godzina 12 UTC
Wiatr 12 kt od wschodnio-południowy wschód
Widzialność 10 km lub więcej
Rozproszone chmury na wysokości 1600 ft

TAF: WADD 171100Z 1712/1812 11012KT 9999 SCT016

Obserwacja i prognoza pogody dla ponad 4000 lotnisk (raport METAR i TAF).

Dostępne stacje oznaczono żółtymi i czerwonymi punktami na mapie.

Najedź kursorem aby zobaczyć nazwę stacji.

Kliknij aby zobaczyć obserwacje i prognozy pogody.

Aby zmienić mapę: kliknij na zielony przycisk z czarnym krzyżykiem, aby powiększyć; na zielony przycisk z myślnikiem, aby pomniejszyć; na zielone strzałki, aby przejść do map sąsiednich.


METAR-TAF: